Time;durP1;ratioP1;P1;durP2;ratioP2;P2;SDS_P1;SDS_P2;PMS_P1;PMS_P2;Temp;Humidity;BMP_temperature;BMP_pressure;BME280_temperature;BME280_humidity;BME280_pressure;Samples;Min_cycle;Max_cycle;Signal;HPM_P1;HPM_P2
2023/09/15 00:02:05;;;;;;;15.52;9.82;;;;;;;23.87;46.18;102074.56;5012049;28;20025;-69
2023/09/15 00:04:30;;;;;;;13.30;9.80;;;;;;;23.80;46.32;102076.66;4994504;28;20050;-69
2023/09/15 00:06:56;;;;;;;15.63;9.43;;;;;;;24.22;46.08;102075.63;4994680;28;20386;-69
2023/09/15 00:09:24;;;;;;;13.85;9.00;;;;;;;23.93;46.49;102073.44;5011756;28;20079;-69
2023/09/15 00:11:50;;;;;;;18.02;9.60;;;;;;;23.85;47.03;102074.66;4994556;28;20037;-69
2023/09/15 00:14:16;;;;;;;18.52;10.23;;;;;;;23.77;46.77;102079.47;4994742;28;20386;-69
2023/09/15 00:16:43;;;;;;;18.45;10.70;;;;;;;23.84;46.79;102069.38;4994654;28;20026;-69
2023/09/15 00:19:16;;;;;;;16.95;10.20;;;;;;;23.55;47.69;102069.78;5012043;28;20018;-69
2023/09/15 00:21:42;;;;;;;15.43;10.55;;;;;;;23.37;47.61;102073.28;4994693;28;20096;-69
2023/09/15 00:24:08;;;;;;;19.13;9.90;;;;;;;23.99;47.46;102067.84;5008509;28;20398;-69
2023/09/15 00:26:34;;;;;;;15.50;10.32;;;;;;;23.96;47.61;102067.97;5010601;28;20025;-69
2023/09/15 00:29:00;;;;;;;17.92;9.95;;;;;;;23.65;47.94;102075.56;5010659;28;20390;-69
2023/09/15 00:31:26;;;;;;;15.23;9.95;;;;;;;23.62;47.82;102069.50;4994210;28;20179;-69
2023/09/15 00:33:52;;;;;;;14.15;9.32;;;;;;;23.80;47.13;102065.97;5010674;28;20026;-70
2023/09/15 00:36:17;;;;;;;19.13;11.32;;;;;;;23.96;46.73;102067.97;4994317;28;20061;-69
2023/09/15 00:38:42;;;;;;;14.23;10.07;;;;;;;23.82;46.54;102066.78;5011815;28;20097;-69
2023/09/15 00:41:08;;;;;;;15.05;10.13;;;;;;;24.05;46.63;102064.88;5010722;28;20048;-69
2023/09/15 00:43:33;;;;;;;22.92;10.13;;;;;;;23.93;46.87;102068.97;4993981;28;20025;-69
2023/09/15 00:45:59;;;;;;;22.40;11.40;;;;;;;23.64;47.19;102065.81;4994249;28;20504;-69
2023/09/15 00:48:26;;;;;;;20.90;10.60;;;;;;;23.46;47.24;102070.19;4993771;28;20025;-70
2023/09/15 00:50:51;;;;;;;18.70;10.98;;;;;;;23.64;47.59;102063.16;5010694;28;20549;-69
2023/09/15 00:53:19;;;;;;;15.32;9.27;;;;;;;23.58;47.25;102062.59;5010713;28;20109;-69
2023/09/15 00:55:51;;;;;;;18.77;11.38;;;;;;;23.52;47.48;102064.59;5011678;28;20470;-69
2023/09/15 00:58:18;;;;;;;18.88;10.88;;;;;;;24.03;46.50;102064.94;4994328;28;20049;-69
2023/09/15 01:00:45;;;;;;;16.45;10.70;;;;;;;24.16;45.86;102059.88;4994033;28;20032;-69
2023/09/15 01:03:17;;;;;;;20.02;11.73;;;;;;;23.54;47.02;102057.38;5010360;28;20164;-69
2023/09/15 01:05:45;;;;;;;19.60;11.40;;;;;;;23.94;46.24;102060.03;5012045;28;20022;-69
2023/09/15 01:08:11;;;;;;;19.35;11.32;;;;;;;23.49;46.60;102056.72;4998075;28;20022;-69
2023/09/15 01:10:37;;;;;;;17.02;11.30;;;;;;;23.78;46.82;102054.53;5015311;28;20034;-70
2023/09/15 01:13:03;;;;;;;19.20;11.80;;;;;;;23.58;47.45;102044.75;5014066;28;20049;-69
2023/09/15 01:15:34;;;;;;;19.88;9.55;;;;;;;23.68;47.31;102054.06;5015271;28;20029;-69
2023/09/15 01:18:05;;;;;;;20.00;11.95;;;;;;;23.57;46.79;102051.03;5015547;28;20072;-70
2023/09/15 01:20:42;;;;;;;20.73;11.40;;;;;;;23.63;46.60;102041.88;4997365;28;20027;-69
2023/09/15 01:23:26;;;;;;;18.55;10.95;;;;;;;23.83;46.39;102052.50;5006815;28;20497;-69
2023/09/15 01:26:00;;;;;;;22.35;11.55;;;;;;;23.55;47.54;102043.09;5016863;28;20033;-69
2023/09/15 01:28:58;;;;;;;22.95;11.57;;;;;;;23.53;46.72;102039.66;5034680;28;20503;-70
2023/09/15 01:31:25;;;;;;;19.67;11.73;;;;;;;23.57;47.15;102039.50;5013029;28;20057;-69
2023/09/15 01:33:51;;;;;;;20.00;11.95;;;;;;;23.51;47.81;102046.84;5033357;28;20083;-69
2023/09/15 01:36:17;;;;;;;18.52;12.48;;;;;;;23.51;47.65;102032.66;5034373;28;20028;-69
2023/09/15 01:38:42;;;;;;;17.13;11.07;;;;;;;23.64;47.29;102040.94;5034598;28;20025;-70
2023/09/15 01:41:08;;;;;;;17.70;11.00;;;;;;;23.38;47.26;102034.97;5033113;28;20029;-70
2023/09/15 01:43:33;;;;;;;19.13;11.68;;;;;;;23.32;47.70;102030.78;5033158;28;20025;-69
2023/09/15 01:45:59;;;;;;;21.48;12.98;;;;;;;23.49;46.87;102026.50;5033100;28;20032;-69
2023/09/15 01:48:26;;;;;;;20.08;12.73;;;;;;;23.55;47.26;102036.91;5032755;28;20486;-69
2023/09/15 01:50:51;;;;;;;24.30;12.10;;;;;;;23.41;46.91;102023.31;5016980;28;20028;-69
2023/09/15 01:53:17;;;;;;;21.23;12.77;;;;;;;23.37;46.79;102025.28;5033344;28;20030;-69
2023/09/15 01:55:43;;;;;;;15.98;11.02;;;;;;;23.31;47.71;102020.19;5033797;28;20080;-69
2023/09/15 01:58:09;;;;;;;19.80;12.07;;;;;;;23.52;47.00;102029.91;5033072;28;20112;-69
2023/09/15 02:00:35;;;;;;;18.85;12.10;;;;;;;22.97;47.32;102024.31;5034071;28;20109;-69
2023/09/15 02:03:01;;;;;;;20.20;11.50;;;;;;;23.20;46.82;102031.34;5033649;28;20021;-69
2023/09/15 02:05:27;;;;;;;17.25;10.32;;;;;;;23.50;47.27;102018.41;5032630;28;20029;-69
2023/09/15 02:07:52;;;;;;;20.20;12.07;;;;;;;23.38;47.20;102018.97;5033095;28;20387;-69
2023/09/15 02:10:18;;;;;;;22.38;12.77;;;;;;;23.23;47.16;102022.34;5032317;28;20025;-69
2023/09/15 02:12:43;;;;;;;21.80;12.30;;;;;;;23.08;47.62;102019.41;5032722;28;20032;-69
2023/09/15 02:15:09;;;;;;;20.17;11.85;;;;;;;23.21;47.16;102014.41;5033366;28;20033;-69
2023/09/15 02:17:34;;;;;;;24.90;13.07;;;;;;;23.19;47.75;102019.81;5031722;28;20018;-69
2023/09/15 02:19:59;;;;;;;22.27;11.60;;;;;;;23.27;46.93;102010.59;5032627;28;20029;-69
2023/09/15 02:22:28;;;;;;;20.70;12.00;;;;;;;23.16;47.45;102014.63;5033502;28;20505;-69
2023/09/15 02:24:53;;;;;;;21.33;12.00;;;;;;;23.37;46.89;102011.94;5016023;28;20040;-69
2023/09/15 02:27:19;;;;;;;19.73;12.50;;;;;;;22.99;47.71;102006.47;5032427;28;20029;-69
2023/09/15 02:29:44;;;;;;;18.13;10.85;;;;;;;22.95;47.46;102015.53;5031909;28;20028;-71
2023/09/15 02:32:10;;;;;;;21.73;12.05;;;;;;;22.97;47.61;102013.66;5033755;28;20428;-69
2023/09/15 02:34:35;;;;;;;18.23;10.70;;;;;;;22.79;47.82;102004.66;5032115;28;20025;-69
2023/09/15 02:37:00;;;;;;;19.85;11.82;;;;;;;22.73;48.52;102005.81;5032047;28;20462;-69
2023/09/15 02:39:26;;;;;;;20.88;12.70;;;;;;;22.80;48.46;102001.94;5033496;28;20051;-69
2023/09/15 02:41:51;;;;;;;23.45;13.10;;;;;;;22.81;47.81;102003.66;5033428;28;20033;-69
2023/09/15 02:44:16;;;;;;;18.33;12.05;;;;;;;22.52;48.85;102008.44;5032028;28;20496;-69
2023/09/15 02:46:42;;;;;;;20.40;12.23;;;;;;;22.63;48.49;102001.81;5032009;28;20452;-69
2023/09/15 02:49:07;;;;;;;21.63;12.18;;;;;;;22.88;47.89;102010.47;5032016;28;20087;-69
2023/09/15 02:51:33;;;;;;;19.67;11.57;;;;;;;22.83;48.70;102006.25;5032919;28;20025;-69
2023/09/15 02:53:59;;;;;;;20.75;12.60;;;;;;;22.49;48.99;102013.91;5032305;28;20057;-69
2023/09/15 02:56:31;;;;;;;20.92;11.77;;;;;;;22.93;47.88;102012.06;5015016;28;20024;-69
2023/09/15 02:58:58;;;;;;;21.48;12.45;;;;;;;22.73;48.67;102005.81;5015189;28;20022;-69
2023/09/15 03:01:23;;;;;;;21.35;12.45;;;;;;;22.72;48.41;102004.06;5033320;28;20021;-69
2023/09/15 03:03:49;;;;;;;22.40;12.45;;;;;;;22.96;47.66;102011.94;5014891;28;20033;-69
2023/09/15 03:06:15;;;;;;;22.38;12.35;;;;;;;22.74;47.97;102002.22;5014995;28;20100;-69
2023/09/15 03:08:40;;;;;;;18.70;11.73;;;;;;;22.28;48.83;102004.94;5032531;28;20500;-69
2023/09/15 03:11:18;;;;;;;19.10;11.82;;;;;;;22.78;48.24;101993.16;5031325;28;20438;-69
2023/09/15 03:13:43;;;;;;;25.52;11.82;;;;;;;22.67;47.99;101992.75;5014830;28;20044;-69
2023/09/15 03:16:13;;;;;;;19.08;11.77;;;;;;;22.56;48.48;101989.66;5031909;28;20482;-70
2023/09/15 03:18:38;;;;;;;21.13;12.27;;;;;;;22.13;48.60;101995.81;5014109;28;20544;-69
2023/09/15 03:21:04;;;;;;;20.70;11.55;;;;;;;22.31;48.16;101988.00;5015051;28;20029;-69
2023/09/15 03:23:30;;;;;;;21.85;11.73;;;;;;;22.41;48.58;101984.06;5031061;28;20075;-70
2023/09/15 03:26:02;;;;;;;19.08;12.02;;;;;;;22.45;48.08;101980.34;5014700;28;20029;-69
2023/09/15 03:28:31;;;;;;;19.63;11.50;;;;;;;22.13;49.47;101985.16;5031684;28;20053;-69
2023/09/15 03:30:56;;;;;;;19.17;11.82;;;;;;;;;;5032430;28;20079;-69
2023/09/15 03:33:23;;;;;;;20.95;12.55;;;;;;;22.29;49.02;101976.56;5032447;28;20108;-69
2023/09/15 03:35:48;;;;;;;23.67;13.27;;;;;;;22.44;48.51;101975.94;5032273;28;20032;-69
2023/09/15 03:38:14;;;;;;;23.92;13.38;;;;;;;22.45;48.59;101979.44;5032587;28;20393;-69
2023/09/15 03:40:39;;;;;;;20.95;12.65;;;;;;;22.47;48.52;101975.78;5031786;28;20033;-69
2023/09/15 03:43:04;;;;;;;18.50;11.65;;;;;;;22.63;47.96;101981.34;5032154;28;20462;-69
2023/09/15 03:45:30;;;;;;;20.80;12.80;;;;;;;22.66;47.90;101980.34;5030798;28;20059;-69
2023/09/15 03:47:55;;;;;;;19.55;12.88;;;;;;;22.78;47.71;101977.16;5032134;28;20029;-69
2023/09/15 03:50:21;;;;;;;24.63;13.02;;;;;;;22.45;48.41;101975.00;5030675;28;20068;-69
2023/09/15 03:52:47;;;;;;;20.27;12.45;;;;;;;22.49;48.05;101973.06;5031788;28;20029;-69
2023/09/15 03:55:13;;;;;;;17.77;11.13;;;;;;;22.46;48.86;101962.53;5030684;28;20032;-69
2023/09/15 03:57:38;;;;;;;22.50;12.52;;;;;;;22.06;49.33;101967.69;5031662;28;20025;-69
2023/09/15 04:00:05;;;;;;;25.67;12.30;;;;;;;22.23;48.88;101971.47;5032287;28;20029;-69
2023/09/15 04:02:30;;;;;;;21.02;12.90;;;;;;;22.37;48.45;101961.16;5030049;28;20413;-69
2023/09/15 04:04:56;;;;;;;21.38;13.02;;;;;;;22.30;48.69;101965.81;5014073;28;20040;-69
2023/09/15 04:07:22;;;;;;;25.33;13.15;;;;;;;22.45;48.72;101963.47;5030786;28;20120;-69
2023/09/15 04:09:47;;;;;;;22.02;13.18;;;;;;;22.52;48.73;101970.28;5030221;28;20452;-69
2023/09/15 04:12:13;;;;;;;22.20;12.52;;;;;;;22.32;48.93;101968.41;5032090;28;20037;-69
2023/09/15 04:14:38;;;;;;;28.30;13.82;;;;;;;21.78;49.80;101958.16;5031314;28;20029;-69
2023/09/15 04:17:04;;;;;;;24.80;13.27;;;;;;;22.05;48.96;101965.97;5030461;28;20033;-69
2023/09/15 04:19:30;;;;;;;23.83;13.25;;;;;;;21.77;49.40;101961.75;5031654;28;20064;-69
2023/09/15 04:21:55;;;;;;;25.58;14.07;;;;;;;22.13;49.43;101963.88;5031410;28;20036;-69
2023/09/15 04:24:21;;;;;;;21.77;13.25;;;;;;;22.15;48.87;101964.66;5032097;28;20790;-69
2023/09/15 04:26:46;;;;;;;22.73;13.18;;;;;;;22.25;48.75;101962.47;5030101;28;20171;-69
2023/09/15 04:29:12;;;;;;;22.83;13.27;;;;;;;22.01;49.46;101954.56;5029791;28;20167;-69
2023/09/15 04:31:38;;;;;;;20.33;12.70;;;;;;;22.16;48.92;101960.19;5030088;28;20036;-70
2023/09/15 04:34:04;;;;;;;25.90;14.80;;;;;;;21.67;49.79;101958.56;5030464;28;20036;-69
2023/09/15 04:36:30;;;;;;;22.30;13.20;;;;;;;22.11;48.86;101960.38;5013347;28;20021;-69
2023/09/15 04:38:56;;;;;;;22.40;12.88;;;;;;;22.36;48.41;101954.94;5031697;28;20440;-69
2023/09/15 04:41:21;;;;;;;25.05;13.98;;;;;;;22.00;49.10;101960.81;5034375;28;20033;-69
2023/09/15 04:43:47;;;;;;;23.85;13.57;;;;;;;22.13;49.14;101958.56;5033563;28;20022;-69
2023/09/15 04:46:13;;;;;;;24.05;13.48;;;;;;;21.89;49.52;101954.22;5034255;28;20461;-69
2023/09/15 04:48:39;;;;;;;22.10;13.20;;;;;;;21.79;49.94;101957.25;5017519;28;20155;-70
2023/09/15 04:51:04;;;;;;;23.13;13.13;;;;;;;21.56;49.92;101957.28;5033859;28;20072;-69
2023/09/15 04:53:30;;;;;;;20.70;11.35;;;;;;;21.80;49.77;101947.44;5035189;28;20473;-69
2023/09/15 04:55:55;;;;;;;24.65;13.27;;;;;;;21.65;50.38;101956.91;5017393;28;20028;-69
2023/09/15 04:58:21;;;;;;;26.63;14.75;;;;;;;21.72;50.60;101963.75;5017378;28;20120;-69
2023/09/15 05:00:48;;;;;;;24.13;12.48;;;;;;;21.84;49.89;101957.03;5033855;28;20067;-69
2023/09/15 05:03:13;;;;;;;21.15;12.70;;;;;;;21.99;49.20;101960.88;5035134;28;20108;-69
2023/09/15 05:05:38;;;;;;;22.08;13.40;;;;;;;21.93;49.20;101966.47;5033320;28;20105;-69
2023/09/15 05:08:04;;;;;;;24.73;13.45;;;;;;;21.68;49.77;101970.97;5035046;28;20470;-69
2023/09/15 05:10:29;;;;;;;23.70;12.43;;;;;;;21.84;49.24;101965.91;5033393;28;20031;-69
2023/09/15 05:12:55;;;;;;;21.38;13.20;;;;;;;21.57;50.67;101969.63;5034986;28;20508;-69
2023/09/15 05:15:20;;;;;;;25.77;13.73;;;;;;;21.59;49.61;101967.78;5017368;28;20025;-69
2023/09/15 05:17:46;;;;;;;23.55;12.02;;;;;;;21.65;50.17;101972.84;5034739;28;20025;-69
2023/09/15 05:20:11;;;;;;;23.13;13.45;;;;;;;21.17;50.28;101979.94;5033272;28;20057;-69
2023/09/15 05:22:37;;;;;;;22.42;12.73;;;;;;;21.62;50.36;101984.47;5016219;28;20053;-69
2023/09/15 05:25:04;;;;;;;20.08;11.48;;;;;;;21.64;49.35;101976.47;5032992;28;20088;-69
2023/09/15 05:27:30;;;;;;;23.25;13.63;;;;;;;21.19;50.42;101981.59;5034516;28;20048;-69
2023/09/15 05:29:56;;;;;;;24.30;14.23;;;;;;;21.13;50.88;101981.84;5016935;28;20025;-69
2023/09/15 05:32:21;;;;;;;20.77;11.73;;;;;;;21.57;50.21;101980.25;5033088;28;20393;-69
2023/09/15 05:34:47;;;;;;;22.02;13.40;;;;;;;21.59;50.04;101979.28;5033042;28;20382;-69
2023/09/15 05:37:13;;;;;;;25.90;14.82;;;;;;;21.18;50.58;101985.22;5034795;28;20025;-69
2023/09/15 05:39:39;;;;;;;26.63;12.75;;;;;;;21.60;50.26;101975.72;5034004;28;20112;-69
2023/09/15 05:42:05;;;;;;;21.25;12.43;;;;;;;21.50;49.89;101980.47;5033107;28;20048;-69
2023/09/15 05:44:30;;;;;;;21.25;12.02;;;;;;;21.69;49.42;101974.47;5033029;28;20477;-69
2023/09/15 05:46:59;;;;;;;24.48;13.73;;;;;;;21.81;49.39;101976.66;5033925;28;20033;-70
2023/09/15 05:49:25;;;;;;;20.17;11.50;;;;;;;21.80;48.88;101977.59;5034254;28;20056;-69
2023/09/15 05:51:51;;;;;;;25.52;12.55;;;;;;;21.73;49.28;101981.41;5015338;28;20481;-69
2023/09/15 05:54:16;;;;;;;30.85;12.95;;;;;;;21.57;49.88;101977.59;5016264;28;20021;-69
2023/09/15 05:56:41;;;;;;;28.27;11.10;;;;;;;21.59;50.40;101975.78;5033902;28;20040;-69
2023/09/15 05:59:07;;;;;;;21.75;12.15;;;;;;;21.64;49.56;101982.66;5032899;28;20041;-69
2023/09/15 06:01:32;;;;;;;22.17;12.43;;;;;;;21.78;49.37;101979.44;5015571;28;20064;-69
2023/09/15 06:03:59;;;;;;;21.95;13.02;;;;;;;21.79;49.96;101982.97;5032966;28;20120;-69
2023/09/15 06:06:25;;;;;;;19.65;11.90;;;;;;;21.94;49.33;101986.81;5032465;28;20034;-69
2023/09/15 06:08:50;;;;;;;23.27;13.20;;;;;;;21.80;49.25;101985.59;5033583;28;20025;-69
2023/09/15 06:11:16;;;;;;;22.05;12.57;;;;;;;22.01;48.64;101993.66;5032567;28;20462;-69
2023/09/15 06:13:42;;;;;;;19.33;11.75;;;;;;;22.08;49.17;101986.25;5032215;28;20040;-69
2023/09/15 06:16:08;;;;;;;22.00;12.75;;;;;;;21.95;49.50;101996.53;5031973;28;20060;-69
2023/09/15 06:18:33;;;;;;;22.25;12.23;;;;;;;21.61;50.09;101992.53;5015796;28;20500;-69
2023/09/15 06:20:59;;;;;;;25.27;12.88;;;;;;;21.82;49.51;101991.69;5033700;28;20030;-71
2023/09/15 06:23:25;;;;;;;25.17;13.13;;;;;;;22.02;49.09;101992.69;5011952;28;20100;-69
2023/09/15 06:25:53;;;;;;;21.95;12.60;;;;;;;21.70;50.04;101997.50;5013658;28;20030;-69
2023/09/15 06:28:19;;;;;;;22.73;12.18;;;;;;;20.83;51.93;101995.28;4996042;28;20504;-69
2023/09/15 06:30:44;;;;;;;23.02;11.40;;;;;;;21.30;51.60;101998.97;5013668;28;20112;-69
2023/09/15 06:33:10;;;;;;;24.48;12.48;;;;;;;21.39;51.08;101998.63;5013544;28;20034;-69
2023/09/15 06:35:37;;;;;;;24.10;13.00;;;;;;;21.65;50.67;101988.81;4995671;28;20022;-69
2023/09/15 06:38:03;;;;;;;20.42;11.55;;;;;;;21.43;51.88;101992.28;4995984;28;20393;-69
2023/09/15 06:40:28;;;;;;;20.10;11.40;;;;;;;21.05;52.35;101983.91;5013450;28;20105;-69
2023/09/15 06:42:54;;;;;;;19.10;11.68;;;;;;;21.11;52.69;101983.69;4995258;28;20034;-69
2023/09/15 06:45:19;;;;;;;21.80;12.73;;;;;;;21.53;51.69;101982.19;4995589;28;20057;-69
2023/09/15 06:47:45;;;;;;;21.90;11.65;;;;;;;21.61;52.00;101976.56;5011769;28;20586;-69
2023/09/15 06:50:10;;;;;;;19.52;12.38;;;;;;;21.78;51.32;101974.13;5012994;28;20101;-69
2023/09/15 06:52:36;;;;;;;19.85;11.27;;;;;;;22.24;50.52;101973.19;5013164;28;20998;-69
2023/09/15 06:55:01;;;;;;;25.00;12.27;;;;;;;21.59;51.78;101975.78;5011915;28;20113;-69
2023/09/15 06:57:27;;;;;;;22.65;11.80;;;;;;;21.65;51.38;101978.19;5011559;28;20560;-69
2023/09/15 06:59:52;;;;;;;23.10;11.63;;;;;;;22.06;51.17;101973.00;4995929;28;20490;-69
2023/09/15 07:02:21;;;;;;;22.75;11.63;;;;;;;22.15;51.37;101971.78;4995529;28;20508;-69
2023/09/15 07:04:46;;;;;;;22.83;11.77;;;;;;;22.10;51.39;101971.97;5011288;28;20076;-69
2023/09/15 07:07:13;;;;;;;18.33;11.20;;;;;;;22.30;50.48;101965.81;4995791;28;20058;-69
2023/09/15 07:09:38;;;;;;;15.50;9.98;;;;;;;22.20;51.21;101964.47;4995450;28;20398;-69
2023/09/15 07:12:04;;;;;;;22.45;11.40;;;;;;;22.83;50.22;101975.16;4995013;28;20057;-70
2023/09/15 07:14:29;;;;;;;18.88;10.60;;;;;;;22.81;49.27;101976.16;5011608;28;20501;-70
2023/09/15 07:16:55;;;;;;;17.42;10.07;;;;;;;22.53;50.55;101972.88;5012016;28;20026;-70
2023/09/15 07:19:20;;;;;;;16.88;9.90;;;;;;;23.09;49.45;101973.13;4995312;28;20478;-70
2023/09/15 07:21:47;;;;;;;28.80;10.95;;;;;;;23.19;48.86;101974.50;4995156;28;20034;-70
2023/09/15 07:24:12;;;;;;;14.05;8.95;;;;;;;23.59;48.04;101976.25;5013356;28;20061;-70
2023/09/15 07:26:37;;;;;;;20.52;9.38;;;;;;;23.27;49.03;101967.94;5032021;28;20078;-70
2023/09/15 07:29:03;;;;;;;14.88;8.73;;;;;;;23.18;49.17;101970.09;5014936;28;20021;-70
2023/09/15 07:31:35;;;;;;;17.98;9.32;;;;;;;23.55;49.15;101963.03;5014252;28;20025;-70
2023/09/15 07:34:01;;;;;;;15.60;9.17;;;;;;;23.95;48.73;101949.63;5014868;28;20041;-70
2023/09/15 07:36:27;;;;;;;16.58;9.48;;;;;;;25.38;45.83;101956.59;5014589;28;20264;-70
2023/09/15 07:38:53;;;;;;;14.60;7.45;;;;;;;27.34;41.33;101954.94;5014538;28;20116;-70
2023/09/15 07:41:18;;;;;;;12.70;7.25;;;;;;;27.87;40.23;101942.56;5032500;28;20091;-70
2023/09/15 07:43:44;;;;;;;10.32;5.32;;;;;;;29.10;37.20;101941.41;5014585;28;20456;-70
2023/09/15 07:46:09;;;;;;;10.45;5.55;;;;;;;29.35;35.44;101949.56;5014038;28;20032;-70
2023/09/15 07:48:34;;;;;;;11.35;5.80;;;;;;;30.67;33.90;101940.66;5014415;28;20025;-70
2023/09/15 07:51:00;;;;;;;7.97;4.60;;;;;;;30.61;34.19;101937.47;5014573;28;20124;-70
2023/09/15 07:53:25;;;;;;;6.88;5.55;;;;;;;31.47;32.41;101939.66;5031532;28;20021;-71
2023/09/15 07:55:51;;;;;;;11.48;5.72;;;;;;;31.07;32.58;101948.31;5031044;28;20430;-71
2023/09/15 07:58:16;;;;;;;9.93;4.97;;;;;;;31.37;32.23;101944.97;5014669;28;20036;-70
2023/09/15 08:00:42;;;;;;;6.40;4.75;;;;;;;31.05;31.02;101944.88;5013914;28;20397;-71
2023/09/15 08:03:08;;;;;;;8.85;4.72;;;;;;;30.70;32.62;101946.66;5014500;28;20037;-70
2023/09/15 08:05:34;;;;;;;11.02;5.22;;;;;;;30.81;32.47;101947.66;5014355;28;20478;-70
2023/09/15 08:07:59;;;;;;;8.73;5.25;;;;;;;29.86;33.95;101938.66;5030599;28;20036;-70
2023/09/15 08:10:26;;;;;;;9.32;4.88;;;;;;;29.87;34.54;101937.69;5030512;28;20021;-71
2023/09/15 08:12:55;;;;;;;6.15;4.57;;;;;;;29.41;34.92;101943.72;5031958;28;20024;-70
2023/09/15 08:15:21;;;;;;;10.10;5.22;;;;;;;29.19;35.76;101937.19;5029810;28;20030;-71
2023/09/15 08:17:47;;;;;;;9.95;5.85;;;;;;;29.22;35.70;101939.66;5014213;28;20115;-70
2023/09/15 08:20:13;;;;;;;8.15;4.93;;;;;;;28.86;35.99;101935.06;5014369;28;20108;-70
2023/09/15 08:22:39;;;;;;;8.02;4.75;;;;;;;28.13;37.43;101937.31;5010431;28;20050;-70
2023/09/15 08:25:10;;;;;;;11.68;5.63;;;;;;;28.29;37.56;101945.22;5012158;28;20075;-70
2023/09/15 08:27:36;;;;;;;10.30;5.18;;;;;;;28.78;36.77;101943.66;5010897;28;20041;-70
2023/09/15 08:30:02;;;;;;;7.80;4.85;;;;;;;28.86;36.71;101945.81;5011991;28;20022;-71
2023/09/15 08:32:27;;;;;;;14.82;5.32;;;;;;;28.78;36.67;101938.28;5010622;28;20448;-70
2023/09/15 08:34:56;;;;;;;7.53;4.38;;;;;;;29.16;36.59;101941.94;5010512;28;20026;-70
2023/09/15 08:37:21;;;;;;;6.65;4.40;;;;;;;28.84;35.90;101937.88;5010927;28;20034;-70
2023/09/15 08:39:46;;;;;;;8.68;4.63;;;;;;;28.49;37.57;101946.53;5010778;28;20437;-70
2023/09/15 08:42:26;;;;;;;8.80;4.43;;;;;;;28.25;37.54;101946.38;4994342;28;20026;-70
2023/09/15 08:44:53;;;;;;;9.02;4.50;;;;;;;28.58;37.20;101937.81;4994576;28;20406;-70
2023/09/15 08:47:20;;;;;;;8.32;4.68;;;;;;;28.81;37.15;101938.09;5010717;28;20160;-70
2023/09/15 08:49:46;;;;;;;6.75;4.25;;;;;;;28.02;37.88;101929.97;5011813;28;20034;-70
2023/09/15 08:52:15;;;;;;;11.57;4.65;;;;;;;28.22;37.99;101942.09;5010774;28;20067;-70
2023/09/15 08:54:41;;;;;;;6.90;4.32;;;;;;;28.13;37.46;101934.63;5012020;28;20026;-70
2023/09/15 08:57:07;;;;;;;7.47;4.03;;;;;;;28.08;38.14;101936.75;4994397;28;20474;-70
2023/09/15 08:59:33;;;;;;;7.05;4.35;;;;;;;28.40;37.94;101934.59;5010178;28;20022;-70
2023/09/15 09:01:59;;;;;;;10.52;4.70;;;;;;;28.47;37.69;101931.47;5011677;28;20616;-70
2023/09/15 09:04:25;;;;;;;7.28;4.38;;;;;;;28.41;38.31;101925.56;5010129;28;20123;-70
2023/09/15 09:06:51;;;;;;;9.27;4.53;;;;;;;28.57;38.26;101933.41;5010510;28;20057;-70
2023/09/15 09:09:17;;;;;;;7.07;4.43;;;;;;;28.23;38.14;101919.63;5010938;28;20067;-70
2023/09/15 09:11:42;;;;;;;10.38;5.70;;;;;;;28.57;37.70;101925.34;5011153;28;20038;-70
2023/09/15 09:14:11;;;;;;;7.35;4.43;;;;;;;28.50;37.84;101921.38;5010447;28;20033;-70
2023/09/15 09:16:47;;;;;;;9.68;4.68;;;;;;;28.48;37.75;101920.63;5010492;28;20559;-70
2023/09/15 09:19:12;;;;;;;8.93;4.80;;;;;;;27.99;38.36;101923.94;5010300;28;20394;-70
2023/09/15 09:21:38;;;;;;;8.82;4.20;;;;;;;27.83;38.28;101911.50;5011739;28;20026;-70
2023/09/15 09:24:05;;;;;;;8.13;4.65;;;;;;;27.85;38.52;101917.66;5028767;28;20484;-70
2023/09/15 09:26:30;;;;;;;7.45;4.72;;;;;;;28.22;38.47;101915.19;5031372;28;20021;-70
2023/09/15 09:28:59;;;;;;;12.32;5.68;;;;;;;28.31;38.62;101912.84;5017495;28;20032;-70
2023/09/15 09:31:29;;;;;;;7.40;4.45;;;;;;;29.17;38.05;101912.22;5035089;28;20029;-70
2023/09/15 09:33:55;;;;;;;9.50;5.10;;;;;;;29.13;37.56;101907.16;5017412;28;20025;-70
2023/09/15 09:36:21;;;;;;;7.82;4.97;;;;;;;29.08;38.22;101919.09;5033855;28;20120;-70
2023/09/15 09:38:49;;;;;;;8.85;4.78;;;;;;;29.17;37.41;101909.53;5034826;28;20108;-70
2023/09/15 09:41:16;;;;;;;8.73;5.35;;;;;;;29.61;36.00;101900.03;5017183;28;20017;-70
2023/09/15 09:43:51;;;;;;;7.28;4.75;;;;;;;29.48;36.97;101896.53;5033820;28;20079;-71
2023/09/15 09:46:21;;;;;;;10.85;5.00;;;;;;;29.11;37.01;101897.38;5017164;28;20028;-70
2023/09/15 09:48:48;;;;;;;9.88;5.18;;;;;;;29.63;35.87;101891.84;5017315;28;20064;-70
2023/09/15 09:51:13;;;;;;;7.03;4.78;;;;;;;29.18;36.65;101891.53;5034682;28;20362;-70
2023/09/15 09:53:39;;;;;;;8.73;5.30;;;;;;;29.36;35.64;101890.22;5016658;28;20111;-70
2023/09/15 09:56:05;;;;;;;9.02;5.28;;;;;;;28.81;35.78;101889.69;5017240;28;20025;-70
2023/09/15 09:58:32;;;;;;;10.65;5.60;;;;;;;29.07;35.58;101892.31;5034612;28;20068;-70
2023/09/15 10:00:58;;;;;;;9.82;5.28;;;;;;;28.34;37.11;101891.13;5016608;28;20033;-70
2023/09/15 10:03:23;;;;;;;6.78;4.35;;;;;;;29.09;35.96;101887.69;5016932;28;20025;-70
2023/09/15 10:05:50;;;;;;;8.10;4.40;;;;;;;29.22;35.44;101893.91;5033335;28;20443;-70
2023/09/15 10:08:16;;;;;;;8.07;4.82;;;;;;;29.68;35.03;101894.22;5030760;28;20075;-70
2023/09/15 10:10:44;;;;;;;8.68;5.15;;;;;;;28.43;35.86;101890.50;5031308;28;20458;-69
2023/09/15 10:13:18;;;;;;;9.10;5.10;;;;;;;28.53;36.08;101891.56;5013969;28;20085;-70
2023/09/15 10:15:45;;;;;;;6.90;4.43;;;;;;;28.75;35.68;101888.25;5013422;28;20025;-70
2023/09/15 10:18:13;;;;;;;8.15;4.65;;;;;;;28.37;36.60;101880.16;5013867;28;20499;-70
2023/09/15 10:20:44;;;;;;;8.68;5.20;;;;;;;29.02;35.27;101881.03;5030556;28;20480;-70
2023/09/15 10:23:13;;;;;;;8.85;5.07;;;;;;;28.75;34.52;101873.97;5013680;28;20100;-71
2023/09/15 10:25:46;;;;;;;6.90;4.65;;;;;;;29.60;34.71;101875.91;5013039;28;20025;-70
2023/09/15 10:28:13;;;;;;;8.32;5.25;;;;;;;29.71;34.26;101862.50;5013321;28;20425;-70
2023/09/15 10:30:39;;;;;;;9.00;4.72;;;;;;;29.33;34.57;101863.50;5013144;28;20025;-70
2023/09/15 10:33:09;;;;;;;7.70;4.82;;;;;;;28.74;34.08;101856.97;5014009;28;20029;-70
2023/09/15 10:35:38;;;;;;;11.07;5.97;;;;;;;28.47;34.71;101857.06;5030160;28;20382;-70
2023/09/15 10:38:03;;;;;;;9.57;5.70;;;;;;;28.47;35.00;101846.31;5030930;28;20018;-69
2023/09/15 10:40:46;;;;;;;7.05;5.18;;;;;;;29.40;34.58;101847.78;5012636;28;20362;-70
2023/09/15 10:43:11;;;;;;;11.73;5.22;;;;;;;28.87;34.62;101851.56;5030744;28;20167;-70
2023/09/15 10:45:37;;;;;;;8.40;5.03;;;;;;;29.48;33.60;101848.06;5030793;28;20473;-70
2023/09/15 10:48:04;;;;;;;8.13;4.97;;;;;;;29.40;33.39;101832.50;5013131;28;20025;-70
2023/09/15 10:50:34;;;;;;;10.48;4.82;;;;;;;29.75;33.28;101838.88;5030011;28;20124;-70
2023/09/15 10:53:10;;;;;;;10.30;5.10;;;;;;;30.22;32.22;101834.38;5031219;28;20481;-70
2023/09/15 10:55:37;;;;;;;7.85;4.78;;;;;;;29.66;33.73;101836.88;5029796;28;20503;-70
2023/09/15 10:58:04;;;;;;;7.97;3.90;;;;;;;29.70;33.42;101838.38;5013293;28;20017;-70
2023/09/15 11:00:31;;;;;;;6.85;4.38;;;;;;;29.99;32.77;101832.63;5012687;28;20033;-70
2023/09/15 11:02:56;;;;;;;6.88;3.67;;;;;;;29.93;33.17;101833.97;5012509;28;20048;-71
2023/09/15 11:05:22;;;;;;;5.07;3.30;;;;;;;30.12;33.27;101822.63;5012908;28;20025;-70
2023/09/15 11:07:49;;;;;;;7.07;3.67;;;;;;;30.07;33.05;101819.41;5012331;28;20037;-70
2023/09/15 11:10:14;;;;;;;6.65;3.92;;;;;;;29.61;33.55;101819.25;5011903;28;20608;-70
2023/09/15 11:12:40;;;;;;;6.82;4.28;;;;;;;29.90;33.53;101813.50;5012538;28;20108;-71